Time;durP1;ratioP1;P1;durP2;ratioP2;P2;SDS_P1;SDS_P2;PMS_P1;PMS_P2;Temp;Humidity;BMP_temperature;BMP_pressure;BME280_temperature;BME280_humidity;BME280_pressure;Samples;Min_cycle;Max_cycle;Signal;HPM_P1;HPM_P2
2022/08/05 05:00:10;;;;;;;8.60;4.93;;;25.70;97.20;;;;;;1733896;28;20219;-76
2022/08/05 05:01:01;;;;;;;6.77;3.87;;;25.70;97.20;;;;;;1733873;28;20330;-76
2022/08/05 05:01:53;;;;;;;4.87;4.07;;;25.60;97.20;;;;;;1733886;28;20543;-75
2022/08/05 05:02:44;;;;;;;4.57;4.17;;;25.60;97.20;;;;;;1733856;28;20443;-75
2022/08/05 05:03:36;;;;;;;7.93;5.30;;;25.60;97.20;;;;;;1734012;28;20431;-74
2022/08/05 05:04:26;;;;;;;6.13;4.30;;;25.60;97.20;;;;;;1727259;28;20952;-74
2022/08/05 05:05:18;;;;;;;9.57;5.20;;;25.50;97.20;;;;;;1732931;28;21013;-74
2022/08/05 05:06:09;;;;;;;3.73;3.43;;;25.50;97.20;;;;;;1733721;28;20206;-75
2022/08/05 05:07:01;;;;;;;4.80;4.07;;;25.50;97.20;;;;;;1733589;28;20442;-76
2022/08/05 05:07:52;;;;;;;7.03;4.00;;;25.50;97.20;;;;;;1733807;28;20446;-76
2022/08/05 05:08:44;;;;;;;10.37;4.50;;;25.50;97.20;;;;;;1733930;28;20462;-75
2022/08/05 05:09:35;;;;;;;4.40;3.83;;;25.50;97.20;;;;;;1733962;28;20451;-76
2022/08/05 05:10:27;;;;;;;6.90;4.20;;;25.50;97.20;;;;;;1733619;28;20442;-76
2022/08/05 05:11:17;;;;;;;7.30;3.93;;;25.50;97.20;;;;;;1733817;28;20199;-76
2022/08/05 05:12:09;;;;;;;4.30;3.97;;;25.50;97.20;;;;;;1734872;28;20441;-76
2022/08/05 05:13:01;;;;;;;6.23;4.57;;;25.50;97.20;;;;;;1735124;28;20647;-76
2022/08/05 05:13:53;;;;;;;6.70;4.97;;;25.50;97.20;;;;;;1735160;28;20973;-76
2022/08/05 05:14:43;;;;;;;10.13;4.77;;;25.50;97.20;;;;;;1735016;28;20954;-75
2022/08/05 05:15:36;;;;;;;7.50;4.17;;;25.40;97.20;;;;;;1735239;28;20871;-77
2022/08/05 05:16:27;;;;;;;4.90;4.20;;;25.40;97.20;;;;;;1735064;28;20192;-76
2022/08/05 05:17:19;;;;;;;5.17;4.67;;;25.40;97.20;;;;;;1734829;28;20439;-76
2022/08/05 05:18:12;;;;;;;6.43;4.80;;;25.40;97.20;;;;;;1735030;28;20203;-76
2022/08/05 05:19:04;;;;;;;5.87;4.07;;;25.40;97.20;;;;;;1734996;28;20435;-75
2022/08/05 05:19:55;;;;;;;5.57;4.30;;;25.40;97.20;;;;;;1735026;28;20438;-75
2022/08/05 05:20:47;;;;;;;9.23;4.60;;;25.40;97.20;;;;;;1734969;28;20454;-75
2022/08/05 05:21:38;;;;;;;7.33;4.63;;;25.40;97.20;;;;;;1735265;28;20200;-75
2022/08/05 05:22:30;;;;;;;6.40;4.67;;;25.50;97.20;;;;;;1735043;28;20614;-75
2022/08/05 05:23:20;;;;;;;7.00;5.10;;;25.50;97.20;;;;;;1735110;28;20206;-75
2022/08/05 05:24:13;;;;;;;5.83;4.83;;;25.50;97.20;;;;;;1734755;28;20514;-75
2022/08/05 05:25:05;;;;;;;5.70;4.10;;;25.50;97.20;;;;;;1734995;28;20283;-75
2022/08/05 05:25:56;;;;;;;6.33;4.63;;;25.50;97.20;;;;;;1734937;28;20438;-74
2022/08/05 05:26:47;;;;;;;7.57;4.60;;;25.50;97.20;;;;;;1734688;28;20453;-75
2022/08/05 05:27:40;;;;;;;8.40;4.10;;;25.60;97.20;;;;;;1735141;28;20446;-75
2022/08/05 05:28:31;;;;;;;7.50;4.53;;;25.60;97.20;;;;;;1734893;28;20439;-75
2022/08/05 05:29:23;;;;;;;7.53;4.33;;;25.60;97.20;;;;;;1735115;28;20809;-74
2022/08/05 05:30:14;;;;;;;7.50;4.50;;;25.60;97.20;;;;;;1734991;28;20942;-75
2022/08/05 05:31:07;;;;;;;4.70;4.00;;;25.70;97.20;;;;;;1734747;28;20486;-75
2022/08/05 05:31:58;;;;;;;4.03;3.73;;;25.70;97.20;;;;;;1734946;28;20455;-75
2022/08/05 05:32:50;;;;;;;4.53;3.90;;;25.70;97.20;;;;;;1734949;28;20530;-75
2022/08/05 05:33:41;;;;;;;5.00;4.27;;;25.70;97.20;;;;;;1735134;28;20199;-75
2022/08/05 05:34:33;;;;;;;5.70;4.27;;;25.70;97.20;;;;;;1735041;28;20521;-74
2022/08/05 05:35:23;;;;;;;5.80;4.00;;;25.70;97.20;;;;;;1735032;28;20446;-74
2022/08/05 05:36:15;;;;;;;6.50;4.00;;;25.70;97.20;;;;;;1734863;28;20526;-74
2022/08/05 05:37:06;;;;;;;7.10;4.53;;;25.70;97.20;;;;;;1734651;28;20230;-74
2022/08/05 05:38:00;;;;;;;7.43;3.80;;;25.70;97.20;;;;;;1734954;28;20464;-75
2022/08/05 05:38:51;;;;;;;5.23;4.30;;;25.80;97.20;;;;;;1734880;28;20485;-74
2022/08/05 05:39:43;;;;;;;5.33;3.93;;;25.80;97.20;;;;;;1734752;28;20442;-75
2022/08/05 05:40:34;;;;;;;5.67;4.17;;;25.80;97.20;;;;;;1734715;28;20590;-74
2022/08/05 05:41:26;;;;;;;4.73;4.33;;;25.80;97.20;;;;;;1734869;28;20525;-74
2022/08/05 05:42:16;;;;;;;6.73;4.40;;;25.90;97.20;;;;;;1734975;28;20203;-74
2022/08/05 05:43:08;;;;;;;4.93;4.20;;;25.90;97.20;;;;;;1734928;28;20473;-75
2022/08/05 05:43:59;;;;;;;5.37;4.47;;;25.90;97.20;;;;;;1734890;28;20573;-75
2022/08/05 05:44:51;;;;;;;5.70;4.60;;;25.90;97.20;;;;;;1735034;28;20504;-75
2022/08/05 05:45:42;;;;;;;5.20;4.70;;;25.90;97.20;;;;;;1734940;28;20458;-75
2022/08/05 05:46:35;;;;;;;6.27;4.43;;;26.00;97.20;;;;;;1734554;28;20525;-75
2022/08/05 05:47:26;;;;;;;5.83;4.90;;;26.00;97.20;;;;;;1734760;28;20215;-76
2022/08/05 05:48:17;;;;;;;8.27;4.93;;;25.90;97.20;;;;;;1734849;28;20493;-75
2022/08/05 05:49:08;;;;;;;6.40;4.50;;;26.00;97.20;;;;;;1734623;28;20214;-75
2022/08/05 05:50:00;;;;;;;6.40;4.73;;;26.00;97.20;;;;;;1734876;28;20478;-75
2022/08/05 05:50:51;;;;;;;4.20;3.80;;;26.00;97.20;;;;;;1734838;28;20228;-75
2022/08/05 05:51:42;;;;;;;6.20;4.73;;;26.00;97.20;;;;;;1734913;28;20514;-75
2022/08/05 05:52:33;;;;;;;8.07;4.50;;;26.10;97.20;;;;;;1734804;28;20450;-76
2022/08/05 05:53:25;;;;;;;7.20;4.10;;;26.10;97.20;;;;;;1734774;28;20446;-75
2022/08/05 05:54:16;;;;;;;5.30;4.80;;;26.10;97.20;;;;;;1734715;28;20458;-75
2022/08/05 05:55:10;;;;;;;10.60;4.67;;;26.10;97.20;;;;;;1734752;28;20453;-75
2022/08/05 05:56:00;;;;;;;5.10;4.40;;;26.10;97.20;;;;;;1734864;28;20210;-75
2022/08/05 05:56:52;;;;;;;4.67;4.27;;;26.20;97.20;;;;;;1734768;28;20521;-75
2022/08/05 05:57:45;;;;;;;7.53;4.53;;;26.20;97.20;;;;;;1735026;28;20207;-74
2022/08/05 05:58:36;;;;;;;5.43;4.60;;;26.20;97.20;;;;;;1734849;28;20449;-76
2022/08/05 05:59:27;;;;;;;6.43;5.03;;;26.20;97.20;;;;;;1734917;28;20780;-76
2022/08/05 06:00:21;;;;;;;10.47;4.60;;;26.20;97.20;;;;;;1734717;28;20825;-74
2022/08/05 06:01:12;;;;;;;5.57;4.40;;;26.30;97.20;;;;;;1734846;28;20211;-76
2022/08/05 06:02:05;;;;;;;4.60;4.10;;;26.30;97.20;;;;;;1734879;28;20542;-73
2022/08/05 06:02:56;;;;;;;7.43;4.40;;;26.30;97.20;;;;;;1734944;28;20447;-75
2022/08/05 06:03:47;;;;;;;6.37;4.30;;;26.30;97.20;;;;;;1734516;28;20963;-75
2022/08/05 06:04:38;;;;;;;9.27;4.77;;;26.40;97.20;;;;;;1734861;28;20200;-75
2022/08/05 06:05:30;;;;;;;7.20;4.67;;;26.40;97.20;;;;;;1734717;28;20533;-75
2022/08/05 06:06:21;;;;;;;6.40;4.80;;;26.40;97.20;;;;;;1734880;28;20604;-75
2022/08/05 06:07:13;;;;;;;6.60;4.07;;;26.40;97.20;;;;;;1734466;28;20492;-74
2022/08/05 06:08:04;;;;;;;6.70;4.57;;;26.40;97.20;;;;;;1734735;28;20204;-75
2022/08/05 06:08:56;;;;;;;7.80;4.30;;;26.50;97.20;;;;;;1734959;28;20449;-75
2022/08/05 06:09:46;;;;;;;5.20;4.70;;;26.50;97.20;;;;;;1734588;28;20200;-75
2022/08/05 06:10:38;;;;;;;11.53;5.17;;;26.50;97.20;;;;;;1734634;28;20478;-75
2022/08/05 06:11:29;;;;;;;6.63;4.63;;;26.50;97.20;;;;;;1734653;28;20700;-76
2022/08/05 06:12:21;;;;;;;4.93;4.53;;;26.50;97.20;;;;;;1734790;28;20625;-76
2022/08/05 06:13:12;;;;;;;8.70;5.43;;;26.60;97.20;;;;;;1734778;28;20684;-76
2022/08/05 06:14:04;;;;;;;6.47;4.70;;;26.60;97.20;;;;;;1734886;28;20446;-76
2022/08/05 06:14:54;;;;;;;6.13;4.20;;;26.60;97.20;;;;;;1734569;28;20451;-75
2022/08/05 06:15:46;;;;;;;7.97;4.60;;;26.60;97.20;;;;;;1734601;28;20542;-72
2022/08/05 06:16:37;;;;;;;5.80;4.80;;;26.60;97.20;;;;;;1734578;28;20685;-75
2022/08/05 06:17:30;;;;;;;7.40;5.17;;;26.70;97.20;;;;;;1734617;28;20454;-76
2022/08/05 06:18:21;;;;;;;8.40;5.27;;;26.70;97.20;;;;;;1734372;28;20200;-76
2022/08/05 06:19:12;;;;;;;5.53;4.90;;;26.70;97.20;;;;;;1734685;28;20474;-76
2022/08/05 06:20:04;;;;;;;5.77;4.47;;;26.70;97.20;;;;;;1731288;28;20214;-75
2022/08/05 06:20:56;;;;;;;7.10;5.20;;;26.70;97.20;;;;;;1734147;28;20462;-76
2022/08/05 06:21:47;;;;;;;6.57;4.80;;;26.80;97.20;;;;;;1734419;28;20511;-76
2022/08/05 06:22:39;;;;;;;5.50;3.80;;;26.80;97.20;;;;;;1733385;28;20533;-76
2022/08/05 06:23:30;;;;;;;7.07;4.37;;;26.80;97.20;;;;;;1733556;28;20454;-76
2022/08/05 06:24:22;;;;;;;4.40;4.00;;;26.80;97.20;;;;;;1728949;28;20498;-76
2022/08/05 06:25:13;;;;;;;6.10;4.10;;;26.80;97.20;;;;;;1734675;28;20458;-74
2022/08/05 06:26:05;;;;;;;4.60;4.20;;;26.80;97.20;;;;;;1734575;28;20481;-75
2022/08/05 06:26:55;;;;;;;4.90;4.50;;;26.80;97.20;;;;;;1734257;28;20200;-75
2022/08/05 06:27:47;;;;;;;5.10;3.67;;;26.80;97.20;;;;;;1734460;28;20457;-75
2022/08/05 06:28:38;;;;;;;6.50;4.20;;;26.90;97.20;;;;;;1734541;28;20295;-76
2022/08/05 06:29:30;;;;;;;7.07;4.60;;;26.90;97.20;;;;;;1734528;28;20439;-76
2022/08/05 06:30:21;;;;;;;4.60;4.20;;;26.90;97.20;;;;;;1734390;28;20663;-75
2022/08/05 06:31:12;;;;;;;9.20;4.83;;;26.90;97.20;;;;;;1734398;28;20981;-75
2022/08/05 06:32:04;;;;;;;5.23;4.13;;;26.90;97.20;;;;;;1734477;28;20678;-76
2022/08/05 06:32:57;;;;;;;4.93;4.53;;;27.00;97.20;;;;;;1734250;28;20451;-76
2022/08/05 06:33:48;;;;;;;8.93;4.43;;;27.00;97.20;;;;;;1734454;28;20459;-75
2022/08/05 06:34:40;;;;;;;6.07;4.50;;;27.00;97.20;;;;;;1734426;28;20542;-76
2022/08/05 06:35:30;;;;;;;5.10;4.60;;;27.00;97.20;;;;;;1734372;28;20581;-76
2022/08/05 06:36:23;;;;;;;7.87;4.17;;;27.10;97.20;;;;;;1733961;28;20496;-75
2022/08/05 06:37:15;;;;;;;5.00;4.50;;;27.10;97.20;;;;;;1733661;28;20558;-76
2022/08/05 06:38:07;;;;;;;6.97;4.30;;;27.10;97.20;;;;;;1733532;28;20533;-75
2022/08/05 06:38:58;;;;;;;7.03;4.70;;;27.10;97.20;;;;;;1733767;28;20442;-76
2022/08/05 06:39:49;;;;;;;6.10;4.57;;;27.20;97.20;;;;;;1733828;28;21013;-76
2022/08/05 06:40:41;;;;;;;11.70;4.30;;;27.20;97.20;;;;;;1734011;28;20239;-75
2022/08/05 06:41:33;;;;;;;5.20;4.70;;;27.20;97.20;;;;;;1734404;28;20918;-76
2022/08/05 06:42:24;;;;;;;6.20;4.07;;;27.20;97.20;;;;;;1733954;28;20446;-76
2022/08/05 06:43:16;;;;;;;5.13;4.63;;;27.30;97.20;;;;;;1734418;28;20469;-76
2022/08/05 06:44:06;;;;;;;4.60;4.20;;;27.30;97.20;;;;;;1734239;28;20196;-76
2022/08/05 06:44:58;;;;;;;3.83;3.50;;;27.30;97.20;;;;;;1733879;28;20530;-76
2022/08/05 06:45:49;;;;;;;3.83;3.40;;;27.30;97.20;;;;;;1734569;28;20203;-76
2022/08/05 06:46:41;;;;;;;3.83;3.43;;;27.40;97.20;;;;;;1734560;28;20466;-77
2022/08/05 06:47:31;;;;;;;5.40;4.13;;;27.40;97.20;;;;;;1734981;28;20207;-77
2022/08/05 06:48:24;;;;;;;4.70;3.90;;;27.40;97.20;;;;;;1734613;28;20435;-75
2022/08/05 06:49:15;;;;;;;6.53;4.10;;;27.50;97.20;;;;;;1734197;28;20619;-75
2022/08/05 06:50:08;;;;;;;3.73;3.43;;;27.50;97.20;;;;;;1734286;28;20521;-75
2022/08/05 06:50:59;;;;;;;4.53;3.87;;;27.50;97.20;;;;;;1734266;28;20212;-75
2022/08/05 06:51:51;;;;;;;9.93;4.30;;;27.50;97.20;;;;;;1734346;28;20486;-75
2022/08/05 06:52:41;;;;;;;4.10;3.73;;;27.50;97.20;;;;;;1734331;28;20812;-75
2022/08/05 06:53:34;;;;;;;5.83;4.00;;;27.60;97.20;;;;;;1734352;28;20857;-75
2022/08/05 06:54:25;;;;;;;5.70;4.10;;;27.60;97.20;;;;;;1734512;28;20239;-76
2022/08/05 06:55:17;;;;;;;11.23;3.80;;;27.60;97.20;;;;;;1734394;28;20434;-75
2022/08/05 06:56:07;;;;;;;3.60;3.30;;;27.70;97.20;;;;;;1734187;28;20207;-76
2022/08/05 06:56:59;;;;;;;6.87;3.80;;;27.70;97.20;;;;;;1733979;28;20477;-76
2022/08/05 06:57:50;;;;;;;3.93;3.60;;;27.70;97.20;;;;;;1734038;28;20230;-76
2022/08/05 06:58:42;;;;;;;7.13;3.53;;;27.70;97.20;;;;;;1734392;28;20471;-77
2022/08/05 06:59:32;;;;;;;4.93;3.87;;;27.80;97.20;;;;;;1734476;28;20200;-76
2022/08/05 07:00:24;;;;;;;5.20;3.60;;;27.80;97.20;;;;;;1733859;28;20971;-76
2022/08/05 07:01:15;;;;;;;7.87;3.70;;;27.80;97.20;;;;;;1734344;28;20200;-76
2022/08/05 07:02:07;;;;;;;4.10;3.70;;;27.80;97.20;;;;;;1734313;28;20442;-75
2022/08/05 07:02:58;;;;;;;3.50;3.20;;;27.80;97.20;;;;;;1734232;28;20196;-76
2022/08/05 07:03:51;;;;;;;3.53;3.10;;;27.90;97.20;;;;;;1734166;28;20447;-76
2022/08/05 07:04:42;;;;;;;3.97;3.23;;;27.90;97.20;;;;;;1734290;28;20442;-76
2022/08/05 07:05:33;;;;;;;4.43;3.00;;;27.90;97.20;;;;;;1734484;28;20439;-75
2022/08/05 07:06:24;;;;;;;3.23;2.97;;;27.90;97.20;;;;;;1734388;28;20206;-76
2022/08/05 07:07:17;;;;;;;4.87;2.97;;;27.90;97.20;;;;;;1734032;28;20534;-76
2022/08/05 07:08:08;;;;;;;3.20;2.90;;;27.90;97.20;;;;;;1734248;28;20207;-76
2022/08/05 07:09:00;;;;;;;3.60;3.30;;;27.90;97.20;;;;;;1734306;28;20742;-76
2022/08/05 07:09:51;;;;;;;6.43;4.03;;;27.90;97.20;;;;;;1734317;28;20501;-76
2022/08/05 07:10:42;;;;;;;3.70;3.00;;;27.90;97.20;;;;;;1734280;28;20505;-76
2022/08/05 07:11:34;;;;;;;3.13;2.83;;;27.90;97.20;;;;;;1727622;28;20318;-76
2022/08/05 07:17:02;;;;;;;3.00;2.80;;;28.00;97.20;;;;;;1734090;28;20425;-76
2022/08/05 07:17:53;;;;;;;2.83;2.63;;;28.00;97.20;;;;;;1734026;28;20443;-76
2022/08/05 07:18:44;;;;;;;2.70;2.50;;;28.00;97.20;;;;;;1734173;28;20478;-76
2022/08/05 07:19:37;;;;;;;3.13;2.83;;;28.00;97.20;;;;;;1734392;28;20375;-76
2022/08/05 07:20:28;;;;;;;3.17;2.90;;;28.00;97.20;;;;;;1734058;28;20203;-76
2022/08/05 07:21:20;;;;;;;3.33;2.90;;;28.10;97.20;;;;;;1734208;28;20541;-76
2022/08/05 07:22:10;;;;;;;3.87;2.90;;;28.10;97.20;;;;;;1734054;28;20200;-76
2022/08/05 07:23:02;;;;;;;4.33;2.50;;;28.10;97.20;;;;;;1734059;28;20584;-76
2022/08/05 07:23:53;;;;;;;3.63;3.00;;;28.10;97.20;;;;;;1734120;28;20207;-76
2022/08/05 07:24:45;;;;;;;3.27;2.60;;;28.10;97.20;;;;;;1734278;28;20443;-77
2022/08/05 07:25:35;;;;;;;2.73;2.53;;;28.10;97.20;;;;;;1734058;28;20580;-76
2022/08/05 07:26:27;;;;;;;4.37;3.30;;;28.10;97.20;;;;;;1734010;28;20465;-76
2022/08/05 07:27:18;;;;;;;4.90;3.27;;;28.10;97.20;;;;;;1733833;28;20624;-76
2022/08/05 07:28:10;;;;;;;3.60;2.70;;;28.10;97.20;;;;;;1734009;28;20864;-76
2022/08/05 07:29:01;;;;;;;3.00;2.80;;;28.10;97.20;;;;;;1734179;28;20592;-76
2022/08/05 07:29:53;;;;;;;3.23;2.93;;;28.20;97.20;;;;;;1734315;28;20929;-76
2022/08/05 07:30:43;;;;;;;4.90;3.10;;;28.20;97.20;;;;;;1727373;28;20262;-76
2022/08/05 07:31:35;;;;;;;3.50;3.20;;;28.20;97.20;;;;;;1733078;28;20478;-76
2022/08/05 07:32:26;;;;;;;6.07;2.80;;;28.30;97.20;;;;;;1734093;28;20226;-76
2022/08/05 07:33:19;;;;;;;4.90;2.93;;;28.30;97.20;;;;;;1734060;28;20526;-76
2022/08/05 07:34:10;;;;;;;3.10;2.80;;;28.30;97.20;;;;;;1733960;28;20260;-76
2022/08/05 07:35:07;;;;;;;4.53;3.33;;;28.40;97.20;;;;;;1734108;28;20786;-76
2022/08/05 07:35:58;;;;;;;3.97;2.83;;;28.40;97.20;;;;;;1734261;28;20449;-76
2022/08/05 07:36:50;;;;;;;3.20;2.63;;;28.40;97.20;;;;;;1733950;28;20461;-76
2022/08/05 07:37:40;;;;;;;2.80;2.60;;;28.40;97.20;;;;;;1733975;28;20659;-76
2022/08/05 07:38:32;;;;;;;2.80;2.60;;;28.50;97.20;;;;;;1734025;28;20962;-76
2022/08/05 07:39:23;;;;;;;3.97;2.97;;;28.50;97.20;;;;;;1734006;28;20254;-76
2022/08/05 07:40:15;;;;;;;2.90;2.60;;;28.50;97.20;;;;;;1733954;28;20442;-75
2022/08/05 07:41:08;;;;;;;3.13;2.83;;;28.50;97.20;;;;;;1733874;28;20232;-77
2022/08/05 07:41:59;;;;;;;3.47;3.17;;;28.50;97.20;;;;;;1734293;28;20439;-76
2022/08/05 07:42:51;;;;;;;3.00;2.70;;;28.50;97.20;;;;;;1734071;28;20489;-76
2022/08/05 07:43:42;;;;;;;3.13;2.83;;;28.50;97.20;;;;;;1734120;28;20195;-76
2022/08/05 07:44:33;;;;;;;3.63;2.80;;;28.50;97.20;;;;;;1733745;28;20537;-76
2022/08/05 07:45:24;;;;;;;4.50;2.83;;;28.50;97.20;;;;;;1733998;28;20450;-76
2022/08/05 07:46:16;;;;;;;3.60;2.97;;;28.60;97.20;;;;;;1733925;28;21001;-76
2022/08/05 07:47:08;;;;;;;6.90;3.13;;;28.60;97.20;;;;;;1733744;28;20465;-76
2022/08/05 07:47:59;;;;;;;2.90;2.70;;;28.60;97.20;;;;;;1734141;28;20454;-76
2022/08/05 07:48:50;;;;;;;7.00;3.20;;;28.60;97.20;;;;;;1734006;28;20467;-76
2022/08/05 07:49:41;;;;;;;6.43;2.83;;;28.60;97.20;;;;;;1734019;28;20192;-76
2022/08/05 07:50:35;;;;;;;2.70;2.50;;;28.60;97.20;;;;;;1733894;28;20434;-76
2022/08/05 07:51:26;;;;;;;3.70;2.47;;;28.60;97.20;;;;;;1733763;28;20664;-75
2022/08/05 07:52:17;;;;;;;3.33;2.53;;;28.60;97.20;;;;;;1733989;28;21014;-75
2022/08/05 07:53:09;;;;;;;3.17;2.87;;;28.60;97.20;;;;;;1733937;28;20203;-76
2022/08/05 07:54:01;;;;;;;4.30;2.90;;;28.70;97.20;;;;;;1727363;28;20446;-76
2022/08/05 07:54:51;;;;;;;3.10;2.77;;;28.70;97.20;;;;;;1733474;28;20953;-76
2022/08/05 07:55:43;;;;;;;7.27;2.53;;;28.70;97.20;;;;;;1734032;28;20890;-76
2022/08/05 07:56:34;;;;;;;3.47;3.17;;;28.70;97.20;;;;;;1733643;28;20200;-75
2022/08/05 07:57:26;;;;;;;3.10;2.80;;;28.80;97.20;;;;;;1733862;28;20486;-76
2022/08/05 07:58:17;;;;;;;3.10;2.33;;;28.80;97.20;;;;;;1733873;28;20501;-76
2022/08/05 07:59:09;;;;;;;3.30;2.50;;;28.80;97.20;;;;;;1734058;28;20443;-76
2022/08/05 08:00:00;;;;;;;2.47;2.27;;;28.80;97.20;;;;;;1727391;28;20586;-76
2022/08/05 08:00:51;;;;;;;4.20;2.90;;;28.90;97.20;;;;;;1732800;28;20848;-76
2022/08/05 08:01:42;;;;;;;2.87;2.67;;;28.90;97.20;;;;;;1733936;28;20457;-76
2022/08/05 08:02:34;;;;;;;4.17;2.77;;;28.90;97.20;;;;;;1733988;28;21026;-76
2022/08/05 08:03:25;;;;;;;2.43;2.30;;;28.90;97.20;;;;;;1733950;28;20204;-76
2022/08/05 08:04:16;;;;;;;3.00;2.70;;;29.00;97.20;;;;;;1733916;28;20478;-76
2022/08/05 08:05:07;;;;;;;2.60;2.40;;;29.00;97.20;;;;;;1734104;28;20686;-76
2022/08/05 08:06:00;;;;;;;4.30;2.53;;;29.00;97.20;;;;;;1733763;28;20977;-76
2022/08/05 08:06:51;;;;;;;3.50;2.63;;;29.10;97.20;;;;;;1733538;28;20451;-76
2022/08/05 08:07:43;;;;;;;2.60;2.40;;;29.10;97.20;;;;;;1733823;28;20479;-76
2022/08/05 08:08:34;;;;;;;2.47;2.27;;;29.10;97.20;;;;;;1733899;28;20260;-76
2022/08/05 08:09:26;;;;;;;2.40;2.20;;;29.10;97.20;;;;;;1733891;28;20985;-76
2022/08/05 08:10:16;;;;;;;3.50;2.73;;;29.10;97.20;;;;;;1733981;28;20211;-75
2022/08/05 08:11:08;;;;;;;2.60;2.40;;;29.20;97.20;;;;;;1734033;28;20557;-76
2022/08/05 08:11:59;;;;;;;3.90;2.97;;;29.20;97.20;;;;;;1733806;28;20212;-76
2022/08/05 08:12:51;;;;;;;2.90;2.70;;;29.20;97.20;;;;;;1733863;28;20533;-75
2022/08/05 08:13:41;;;;;;;6.90;3.37;;;29.20;97.20;;;;;;1733688;28;20234;-76
2022/08/05 08:14:33;;;;;;;3.20;2.50;;;29.30;97.20;;;;;;1733643;28;20529;-76
2022/08/05 08:15:24;;;;;;;3.33;2.83;;;29.30;97.20;;;;;;1733924;28;20290;-76
2022/08/05 08:16:16;;;;;;;3.77;3.47;;;29.30;97.20;;;;;;1734061;28;20477;-76
2022/08/05 08:17:09;;;;;;;3.70;3.40;;;29.40;97.20;;;;;;1733602;28;20970;-76
2022/08/05 08:18:01;;;;;;;2.93;2.40;;;29.40;97.20;;;;;;1733678;28;20450;-76
2022/08/05 08:18:52;;;;;;;3.07;2.80;;;29.40;97.20;;;;;;1733824;28;20500;-75
2022/08/05 08:19:45;;;;;;;2.30;2.17;;;29.50;97.20;;;;;;1733856;28;20577;-76
2022/08/05 08:20:35;;;;;;;2.77;2.57;;;29.50;97.20;;;;;;1733724;28;20584;-75
2022/08/05 08:21:28;;;;;;;4.87;2.80;;;29.50;97.20;;;;;;1734025;28;20458;-77
2022/08/05 08:22:25;;;;;;;3.40;2.07;;;29.50;97.20;;;;;;1727296;28;20200;-76
2022/08/05 08:23:17;;;;;;;3.10;2.60;;;29.50;97.20;;;;;;1733985;28;20857;-76
2022/08/05 08:24:08;;;;;;;2.57;2.37;;;29.50;97.20;;;;;;1733852;28;20482;-76
2022/08/05 08:25:00;;;;;;;2.60;2.40;;;29.50;97.20;;;;;;1733849;28;20447;-76
2022/08/05 08:25:51;;;;;;;3.33;2.80;;;29.50;97.20;;;;;;1733795;28;20200;-76
2022/08/05 08:26:43;;;;;;;2.27;1.80;;;29.50;97.20;;;;;;1733571;28;20477;-76
2022/08/05 08:27:34;;;;;;;2.40;2.30;;;29.50;97.20;;;;;;1733528;28;20196;-76
2022/08/05 08:28:26;;;;;;;2.53;2.30;;;29.50;97.20;;;;;;1733941;28;20442;-76
2022/08/05 08:29:16;;;;;;;4.10;2.40;;;29.50;97.20;;;;;;1733870;28;20207;-76
2022/08/05 08:30:10;;;;;;;2.80;2.60;;;29.40;97.20;;;;;;1733824;28;20514;-76
2022/08/05 08:31:01;;;;;;;3.53;2.50;;;29.40;97.20;;;;;;1733895;28;20242;-76
2022/08/05 08:31:53;;;;;;;3.63;2.50;;;29.40;97.20;;;;;;1733725;28;20493;-76
2022/08/05 08:32:44;;;;;;;4.03;2.40;;;29.40;97.20;;;;;;1733883;28;20206;-76
2022/08/05 08:33:36;;;;;;;2.67;2.23;;;29.40;97.20;;;;;;1733899;28;20442;-76
2022/08/05 08:34:27;;;;;;;2.43;2.20;;;29.40;97.20;;;;;;1733905;28;20461;-76
2022/08/05 08:35:19;;;;;;;3.10;2.80;;;29.40;97.20;;;;;;1733778;28;20474;-76
2022/08/05 08:36:10;;;;;;;3.10;2.90;;;29.40;97.20;;;;;;1733718;28;20199;-76
2022/08/05 08:37:03;;;;;;;3.07;2.87;;;29.40;97.20;;;;;;1733670;28;20442;-76
2022/08/05 08:37:54;;;;;;;3.90;2.70;;;29.50;97.20;;;;;;1733853;28;20212;-77
2022/08/05 08:38:46;;;;;;;3.33;3.03;;;29.50;97.20;;;;;;1733889;28;20478;-76
2022/08/05 08:39:37;;;;;;;2.73;2.53;;;29.50;97.20;;;;;;1733950;28;20204;-76
2022/08/05 08:40:29;;;;;;;2.67;2.47;;;29.60;97.20;;;;;;1733271;28;20493;-76
2022/08/05 08:41:21;;;;;;;3.00;2.77;;;29.60;97.20;;;;;;1733984;28;20195;-76
2022/08/05 08:42:14;;;;;;;2.90;2.70;;;29.70;97.20;;;;;;1733796;28;20439;-76
2022/08/05 08:43:05;;;;;;;3.07;2.83;;;29.70;97.20;;;;;;1733777;28;20446;-76
2022/08/05 08:43:58;;;;;;;2.63;2.43;;;29.80;97.20;;;;;;1733786;28;20826;-76
2022/08/05 08:44:53;;;;;;;3.70;3.03;;;29.80;97.20;;;;;;1734008;28;20451;-78
2022/08/05 08:45:46;;;;;;;4.03;3.20;;;29.80;97.20;;;;;;1733943;28;20816;-76
2022/08/05 08:46:37;;;;;;;3.80;2.40;;;29.90;97.20;;;;;;1734053;28;20446;-76
2022/08/05 08:47:30;;;;;;;3.10;2.60;;;29.90;97.20;;;;;;1735352;28;20973;-77
2022/08/05 08:48:21;;;;;;;2.87;2.67;;;30.00;97.20;;;;;;1735343;28;20454;-76
2022/08/05 08:49:14;;;;;;;3.10;2.80;;;30.00;97.20;;;;;;1735194;28;20450;-76
2022/08/05 08:50:06;;;;;;;2.70;2.50;;;30.10;97.20;;;;;;1735117;28;22024;-76
2022/08/05 08:51:00;;;;;;;2.87;2.67;;;30.10;97.20;;;;;;1735106;28;20494;-76
2022/08/05 08:51:58;;;;;;;3.10;2.80;;;30.20;97.20;;;;;;1735009;28;20454;-76
2022/08/05 08:52:54;;;;;;;2.80;2.60;;;30.20;97.20;;;;;;1735224;28;20906;-76
2022/08/05 08:53:45;;;;;;;4.93;2.20;;;30.20;97.20;;;;;;1728609;28;20804;-76
2022/08/05 08:54:37;;;;;;;3.43;3.13;;;30.30;97.20;;;;;;1734395;28;20886;-76
2022/08/05 08:55:28;;;;;;;3.30;3.10;;;30.30;97.20;;;;;;1735038;28;20453;-76
2022/08/05 08:56:20;;;;;;;6.80;3.20;;;30.40;97.20;;;;;;1735540;28;20473;-78
2022/08/05 08:57:11;;;;;;;2.87;2.67;;;30.40;97.20;;;;;;1735135;28;20521;-78
2022/08/05 08:58:03;;;;;;;2.50;2.30;;;30.40;97.20;;;;;;1735434;28;20448;-78
2022/08/05 08:58:54;;;;;;;3.10;2.80;;;30.50;97.20;;;;;;1735444;28;20446;-78
2022/08/05 08:59:46;;;;;;;2.50;2.30;;;30.50;97.20;;;;;;1735664;28;20478;-77
2022/08/05 09:00:39;;;;;;;2.53;2.33;;;30.60;97.20;;;;;;1735123;28;20443;-77
2022/08/05 09:01:32;;;;;;;2.73;2.53;;;30.60;97.20;;;;;;1735045;28;20960;-77
2022/08/05 09:02:23;;;;;;;2.40;2.20;;;30.60;97.20;;;;;;1735162;28;20441;-77
2022/08/05 09:03:15;;;;;;;2.87;2.67;;;30.70;97.20;;;;;;1735093;28;20442;-77
2022/08/05 09:04:07;;;;;;;4.80;2.30;;;30.70;97.20;;;;;;1735144;28;20864;-77
2022/08/05 09:04:59;;;;;;;9.20;2.57;;;30.70;97.20;;;;;;1735083;28;20443;-77
2022/08/05 09:05:50;;;;;;;3.07;2.87;;;30.70;97.20;;;;;;1735332;28;20446;-77
2022/08/05 09:06:42;;;;;;;3.27;2.90;;;30.80;97.20;;;;;;1734918;28;20537;-77
2022/08/05 09:07:33;;;;;;;3.47;3.17;;;30.80;97.20;;;;;;1735094;28;20569;-77
2022/08/05 09:08:26;;;;;;;2.80;2.60;;;30.80;97.20;;;;;;1734957;28;20442;-77
2022/08/05 09:09:17;;;;;;;2.93;2.67;;;30.90;97.20;;;;;;1735088;28;20442;-77
2022/08/05 09:10:09;;;;;;;3.43;2.87;;;30.90;97.20;;;;;;1735091;28;20485;-77
2022/08/05 09:11:00;;;;;;;2.63;2.43;;;30.90;97.20;;;;;;1735014;28;20224;-77
2022/08/05 09:11:51;;;;;;;3.10;2.30;;;31.00;97.20;;;;;;1735280;28;20517;-77
2022/08/05 09:12:42;;;;;;;4.33;2.03;;;31.00;97.20;;;;;;1735072;28;20482;-78
2022/08/05 09:13:34;;;;;;;2.97;2.43;;;31.00;97.20;;;;;;1735042;28;20968;-77
2022/08/05 09:14:26;;;;;;;2.57;1.87;;;31.00;97.20;;;;;;1735115;28;20450;-78
2022/08/05 09:15:18;;;;;;;4.37;2.47;;;31.00;97.20;;;;;;1734965;28;20733;-77
2022/08/05 09:16:10;;;;;;;2.70;2.50;;;31.10;97.20;;;;;;1734928;28;20461;-77
2022/08/05 09:17:04;;;;;;;2.23;2.03;;;31.10;97.20;;;;;;1734805;28;20446;-77
2022/08/05 09:17:54;;;;;;;2.67;2.47;;;31.00;97.20;;;;;;1735057;28;20468;-77
2022/08/05 09:18:47;;;;;;;2.53;2.10;;;31.10;97.20;;;;;;1734994;28;20457;-77
2022/08/05 09:19:38;;;;;;;3.30;2.37;;;31.00;97.20;;;;;;1734911;28;20450;-77
2022/08/05 09:20:30;;;;;;;2.90;2.40;;;31.00;97.20;;;;;;1734938;28;20446;-77
2022/08/05 09:21:21;;;;;;;2.37;2.23;;;31.00;97.20;;;;;;1734751;28;20454;-77
2022/08/05 09:22:13;;;;;;;2.87;2.67;;;31.00;97.20;;;;;;1734904;28;20481;-77
2022/08/05 09:23:07;;;;;;;3.43;2.27;;;30.90;97.20;;;;;;1734763;28;20451;-77
2022/08/05 09:24:07;;;;;;;2.30;2.03;;;31.00;97.20;;;;;;1735220;28;20438;-77
2022/08/05 09:24:58;;;;;;;2.67;2.30;;;31.00;97.20;;;;;;1735253;28;20934;-77
2022/08/05 09:25:53;;;;;;;2.87;2.40;;;31.00;97.20;;;;;;1729690;28;20540;-77
2022/08/05 09:26:46;;;;;;;2.50;1.87;;;31.00;97.20;;;;;;1735764;28;20446;-77
2022/08/05 09:27:38;;;;;;;2.40;2.13;;;31.00;97.20;;;;;;1736474;28;20879;-77
2022/08/05 09:28:30;;;;;;;3.37;2.50;;;30.90;97.20;;;;;;1736555;28;20458;-77
2022/08/05 09:29:36;;;;;;;2.30;2.10;;;30.90;97.20;;;;;;1735325;28;20798;-77
2022/08/05 09:30:27;;;;;;;3.87;2.13;;;30.90;97.20;;;;;;1734903;28;20458;-77
2022/08/05 09:31:18;;;;;;;2.60;2.40;;;30.90;97.20;;;;;;1734847;28;20537;-77
2022/08/05 09:32:10;;;;;;;2.33;2.10;;;31.00;97.20;;;;;;1734814;28;20211;-77
2022/08/05 09:33:02;;;;;;;2.33;2.13;;;31.00;97.20;;;;;;1735204;28;20814;-77